Back to top

Lander, WY weather

Hunt Field Airport, Lander, WY: 7/22/2019 14:11
Visibility4 statute milesclouds, rain and lightning
View 7-Day Forecast
Area Summary
Sky/CloudsFew at 5500ft, Scattered at 8000ft, Solid Overcast at 11000ft
Weather [last 24 hours]Light thunderstorm rain [thunderstorm began 13:20; rain began 13:27, thunderstorm began 13:20 ended 13:50; thunderstorm began 14:19 ]
Pressure30.3 in.Hg (1026 hPa)
Dew Point62.1 °F (16.7 °C)
Relative Humidity81.3 %
Hourly Precipitation0.03 in. (0.762 mm)
Last 24-Hour Precip.0.07 in. (1.778 mm)
Temperature68 °F (20 °C)red thermometer
Reading TimeMinimum to Maximum Temperature
6-hr ending 7/22@11:5359 °F to 77 °F (15 °C to 25 °C)
6-hr ending 7/22@05:5357.9 °F to 68 °F (14.4 °C to 20 °C)
6-hr ending 7/21@23:5366.9 °F to 84 °F (19.4 °C to 28.9 °C)
6-hr ending 7/21@17:5373 °F to 84.9 °F (22.8 °C to 29.4 °C)
24-hr ending 7/22@00:5357 °F to 84.9 °F (13.9 °C to 29.4 °C)
Wind10.4 MPH (9 KT) green arrow pointing 247.5 degrees
Wind FromWest/Southwest (250 Degrees)
Twilight Begins05:22Sunshine Yesterday
Sunrise05:55N/A
Sunset20:47
Twilight Ends21:20
METARKLND 222011Z AUTO 25009KT 4SM -TSRA FEW055 SCT080 OVC110 20/17 A3030 RMK AO2 TSB1957 P0003 T02000167
Tags: